sensor_id;sensor_type;location;lat;lon;timestamp;P1;durP1;ratioP1;P2;durP2;ratioP2
39128;SDS011;24864;49.940;19.770;2023-01-26T00:01:50;34.00;;;19.00;;
39128;SDS011;24864;49.940;19.770;2023-01-26T00:04:19;34.95;;;18.80;;
39128;SDS011;24864;49.940;19.770;2023-01-26T00:06:47;33.53;;;18.40;;
39128;SDS011;24864;49.940;19.770;2023-01-26T00:09:16;32.65;;;19.10;;
39128;SDS011;24864;49.940;19.770;2023-01-26T00:11:44;28.67;;;17.42;;
39128;SDS011;24864;49.940;19.770;2023-01-26T00:14:12;35.72;;;18.83;;
39128;SDS011;24864;49.940;19.770;2023-01-26T00:16:41;35.90;;;19.30;;
39128;SDS011;24864;49.940;19.770;2023-01-26T00:19:10;34.83;;;19.30;;
39128;SDS011;24864;49.940;19.770;2023-01-26T00:21:38;34.53;;;18.85;;
39128;SDS011;24864;49.940;19.770;2023-01-26T00:24:06;31.73;;;18.75;;
39128;SDS011;24864;49.940;19.770;2023-01-26T00:26:34;36.13;;;18.75;;
39128;SDS011;24864;49.940;19.770;2023-01-26T00:29:03;32.47;;;18.38;;
39128;SDS011;24864;49.940;19.770;2023-01-26T00:31:30;34.70;;;17.55;;
39128;SDS011;24864;49.940;19.770;2023-01-26T00:34:00;31.52;;;16.35;;
39128;SDS011;24864;49.940;19.770;2023-01-26T00:36:28;31.92;;;18.17;;
39128;SDS011;24864;49.940;19.770;2023-01-26T00:38:56;35.33;;;19.17;;
39128;SDS011;24864;49.940;19.770;2023-01-26T00:41:24;30.20;;;17.65;;
39128;SDS011;24864;49.940;19.770;2023-01-26T00:44:10;28.20;;;16.38;;
39128;SDS011;24864;49.940;19.770;2023-01-26T00:46:38;27.67;;;17.60;;
39128;SDS011;24864;49.940;19.770;2023-01-26T00:49:08;36.03;;;18.55;;
39128;SDS011;24864;49.940;19.770;2023-01-26T00:51:36;36.28;;;17.67;;
39128;SDS011;24864;49.940;19.770;2023-01-26T00:54:04;34.75;;;18.13;;
39128;SDS011;24864;49.940;19.770;2023-01-26T00:56:32;34.42;;;17.50;;
39128;SDS011;24864;49.940;19.770;2023-01-26T00:59:01;32.95;;;16.75;;
39128;SDS011;24864;49.940;19.770;2023-01-26T01:01:29;31.02;;;16.38;;
39128;SDS011;24864;49.940;19.770;2023-01-26T01:03:57;35.40;;;18.02;;
39128;SDS011;24864;49.940;19.770;2023-01-26T01:06:26;31.30;;;16.40;;
39128;SDS011;24864;49.940;19.770;2023-01-26T01:08:55;32.10;;;17.48;;
39128;SDS011;24864;49.940;19.770;2023-01-26T01:11:23;36.97;;;17.83;;
39128;SDS011;24864;49.940;19.770;2023-01-26T01:13:51;32.72;;;17.27;;
39128;SDS011;24864;49.940;19.770;2023-01-26T01:16:19;33.20;;;17.23;;
39128;SDS011;24864;49.940;19.770;2023-01-26T01:18:47;31.83;;;17.80;;
39128;SDS011;24864;49.940;19.770;2023-01-26T01:21:19;36.15;;;18.75;;
39128;SDS011;24864;49.940;19.770;2023-01-26T01:23:50;34.33;;;17.80;;
39128;SDS011;24864;49.940;19.770;2023-01-26T01:26:18;33.95;;;17.35;;
39128;SDS011;24864;49.940;19.770;2023-01-26T01:28:46;30.10;;;17.00;;
39128;SDS011;24864;49.940;19.770;2023-01-26T01:31:15;34.38;;;18.50;;
39128;SDS011;24864;49.940;19.770;2023-01-26T01:33:43;32.00;;;16.83;;
39128;SDS011;24864;49.940;19.770;2023-01-26T01:36:12;31.10;;;17.08;;
39128;SDS011;24864;49.940;19.770;2023-01-26T01:38:41;29.95;;;16.23;;
39128;SDS011;24864;49.940;19.770;2023-01-26T01:41:11;33.88;;;18.35;;
39128;SDS011;24864;49.940;19.770;2023-01-26T01:43:40;34.80;;;18.70;;
39128;SDS011;24864;49.940;19.770;2023-01-26T01:46:10;36.60;;;18.00;;
39128;SDS011;24864;49.940;19.770;2023-01-26T01:48:44;29.52;;;17.13;;
39128;SDS011;24864;49.940;19.770;2023-01-26T01:51:17;31.70;;;18.17;;
39128;SDS011;24864;49.940;19.770;2023-01-26T01:53:48;37.10;;;18.17;;
39128;SDS011;24864;49.940;19.770;2023-01-26T01:56:20;36.13;;;19.27;;
39128;SDS011;24864;49.940;19.770;2023-01-26T01:58:50;36.75;;;18.27;;
39128;SDS011;24864;49.940;19.770;2023-01-26T02:01:21;33.50;;;18.90;;
39128;SDS011;24864;49.940;19.770;2023-01-26T02:03:49;36.85;;;17.65;;
39128;SDS011;24864;49.940;19.770;2023-01-26T02:06:20;33.60;;;18.35;;
39128;SDS011;24864;49.940;19.770;2023-01-26T02:08:50;35.65;;;19.17;;
39128;SDS011;24864;49.940;19.770;2023-01-26T02:11:21;35.90;;;18.70;;
39128;SDS011;24864;49.940;19.770;2023-01-26T02:13:52;31.80;;;17.70;;
39128;SDS011;24864;49.940;19.770;2023-01-26T02:16:21;38.42;;;20.05;;
39128;SDS011;24864;49.940;19.770;2023-01-26T02:18:49;29.98;;;16.88;;
39128;SDS011;24864;49.940;19.770;2023-01-26T02:21:18;33.95;;;18.02;;
39128;SDS011;24864;49.940;19.770;2023-01-26T02:23:49;36.60;;;19.48;;
39128;SDS011;24864;49.940;19.770;2023-01-26T02:26:32;32.78;;;18.10;;
39128;SDS011;24864;49.940;19.770;2023-01-26T02:29:01;36.22;;;20.08;;
39128;SDS011;24864;49.940;19.770;2023-01-26T02:31:30;37.17;;;18.35;;
39128;SDS011;24864;49.940;19.770;2023-01-26T02:33:58;34.83;;;19.13;;
39128;SDS011;24864;49.940;19.770;2023-01-26T02:36:27;39.08;;;18.52;;
39128;SDS011;24864;49.940;19.770;2023-01-26T02:39:01;40.78;;;20.33;;
39128;SDS011;24864;49.940;19.770;2023-01-26T02:41:40;38.42;;;19.77;;
39128;SDS011;24864;49.940;19.770;2023-01-26T02:44:35;37.15;;;20.13;;
39128;SDS011;24864;49.940;19.770;2023-01-26T02:47:09;36.47;;;19.70;;
39128;SDS011;24864;49.940;19.770;2023-01-26T02:49:38;37.22;;;19.55;;
39128;SDS011;24864;49.940;19.770;2023-01-26T02:52:17;36.42;;;18.48;;
39128;SDS011;24864;49.940;19.770;2023-01-26T02:54:46;37.58;;;18.83;;
39128;SDS011;24864;49.940;19.770;2023-01-26T02:57:33;38.97;;;20.33;;
39128;SDS011;24864;49.940;19.770;2023-01-26T03:00:02;44.70;;;23.42;;
39128;SDS011;24864;49.940;19.770;2023-01-26T03:02:31;48.40;;;25.83;;
39128;SDS011;24864;49.940;19.770;2023-01-26T03:04:59;48.17;;;25.27;;
39128;SDS011;24864;49.940;19.770;2023-01-26T03:07:27;53.17;;;26.95;;
39128;SDS011;24864;49.940;19.770;2023-01-26T03:09:55;46.78;;;23.50;;
39128;SDS011;24864;49.940;19.770;2023-01-26T03:12:24;35.15;;;19.63;;
39128;SDS011;24864;49.940;19.770;2023-01-26T03:14:54;39.13;;;20.55;;
39128;SDS011;24864;49.940;19.770;2023-01-26T03:17:40;43.42;;;21.90;;
39128;SDS011;24864;49.940;19.770;2023-01-26T03:20:08;37.47;;;19.88;;
39128;SDS011;24864;49.940;19.770;2023-01-26T03:22:55;45.08;;;21.55;;
39128;SDS011;24864;49.940;19.770;2023-01-26T03:25:41;42.45;;;21.70;;
39128;SDS011;24864;49.940;19.770;2023-01-26T03:28:27;39.40;;;19.75;;
39128;SDS011;24864;49.940;19.770;2023-01-26T03:30:56;37.42;;;18.60;;
39128;SDS011;24864;49.940;19.770;2023-01-26T03:33:24;35.25;;;18.30;;
39128;SDS011;24864;49.940;19.770;2023-01-26T03:35:53;36.40;;;18.38;;
39128;SDS011;24864;49.940;19.770;2023-01-26T03:38:21;42.05;;;19.20;;
39128;SDS011;24864;49.940;19.770;2023-01-26T03:40:50;38.50;;;19.77;;
39128;SDS011;24864;49.940;19.770;2023-01-26T03:43:35;40.42;;;20.10;;
39128;SDS011;24864;49.940;19.770;2023-01-26T03:46:22;40.50;;;20.52;;
39128;SDS011;24864;49.940;19.770;2023-01-26T03:49:08;40.58;;;20.75;;
39128;SDS011;24864;49.940;19.770;2023-01-26T03:51:54;37.22;;;19.83;;
39128;SDS011;24864;49.940;19.770;2023-01-26T03:54:39;43.05;;;21.73;;
39128;SDS011;24864;49.940;19.770;2023-01-26T03:57:27;39.65;;;20.98;;
39128;SDS011;24864;49.940;19.770;2023-01-26T03:59:55;42.10;;;20.52;;
39128;SDS011;24864;49.940;19.770;2023-01-26T04:02:25;44.08;;;22.77;;
39128;SDS011;24864;49.940;19.770;2023-01-26T04:05:11;40.25;;;22.55;;
39128;SDS011;24864;49.940;19.770;2023-01-26T04:08:00;39.30;;;21.85;;
39128;SDS011;24864;49.940;19.770;2023-01-26T04:10:47;36.58;;;18.75;;
39128;SDS011;24864;49.940;19.770;2023-01-26T04:13:16;37.08;;;21.13;;
39128;SDS011;24864;49.940;19.770;2023-01-26T04:16:02;38.25;;;20.17;;
39128;SDS011;24864;49.940;19.770;2023-01-26T04:18:50;40.97;;;19.73;;
39128;SDS011;24864;49.940;19.770;2023-01-26T04:21:36;42.45;;;22.13;;
39128;SDS011;24864;49.940;19.770;2023-01-26T04:24:05;40.15;;;21.77;;
39128;SDS011;24864;49.940;19.770;2023-01-26T04:26:35;45.05;;;20.80;;
39128;SDS011;24864;49.940;19.770;2023-01-26T04:29:04;36.38;;;20.05;;
39128;SDS011;24864;49.940;19.770;2023-01-26T04:31:33;42.08;;;22.02;;
39128;SDS011;24864;49.940;19.770;2023-01-26T04:34:04;41.40;;;22.23;;
39128;SDS011;24864;49.940;19.770;2023-01-26T04:36:33;47.05;;;23.75;;
39128;SDS011;24864;49.940;19.770;2023-01-26T04:39:01;45.47;;;23.88;;
39128;SDS011;24864;49.940;19.770;2023-01-26T04:41:29;42.08;;;20.65;;
39128;SDS011;24864;49.940;19.770;2023-01-26T04:43:58;46.22;;;22.63;;
39128;SDS011;24864;49.940;19.770;2023-01-26T04:46:27;43.75;;;23.85;;
39128;SDS011;24864;49.940;19.770;2023-01-26T04:48:55;44.40;;;22.83;;
39128;SDS011;24864;49.940;19.770;2023-01-26T04:51:24;47.30;;;22.08;;
39128;SDS011;24864;49.940;19.770;2023-01-26T04:53:53;43.90;;;23.13;;
39128;SDS011;24864;49.940;19.770;2023-01-26T04:56:22;41.97;;;22.27;;
39128;SDS011;24864;49.940;19.770;2023-01-26T04:58:52;42.40;;;21.35;;
39128;SDS011;24864;49.940;19.770;2023-01-26T05:01:20;38.63;;;20.20;;
39128;SDS011;24864;49.940;19.770;2023-01-26T05:03:48;43.38;;;23.35;;
39128;SDS011;24864;49.940;19.770;2023-01-26T05:06:17;36.42;;;19.95;;
39128;SDS011;24864;49.940;19.770;2023-01-26T05:08:46;40.00;;;21.35;;
39128;SDS011;24864;49.940;19.770;2023-01-26T05:11:14;40.85;;;21.00;;
39128;SDS011;24864;49.940;19.770;2023-01-26T05:13:43;43.45;;;22.02;;
39128;SDS011;24864;49.940;19.770;2023-01-26T05:16:12;41.03;;;21.77;;
39128;SDS011;24864;49.940;19.770;2023-01-26T05:18:40;42.70;;;21.50;;
39128;SDS011;24864;49.940;19.770;2023-01-26T05:21:09;41.63;;;20.80;;
39128;SDS011;24864;49.940;19.770;2023-01-26T05:23:37;39.28;;;21.33;;
39128;SDS011;24864;49.940;19.770;2023-01-26T05:26:07;43.75;;;20.50;;
39128;SDS011;24864;49.940;19.770;2023-01-26T05:28:35;43.75;;;21.02;;
39128;SDS011;24864;49.940;19.770;2023-01-26T05:31:03;40.53;;;20.45;;
39128;SDS011;24864;49.940;19.770;2023-01-26T05:33:32;37.28;;;20.65;;
39128;SDS011;24864;49.940;19.770;2023-01-26T05:36:02;42.10;;;20.65;;
39128;SDS011;24864;49.940;19.770;2023-01-26T05:38:31;38.17;;;20.67;;
39128;SDS011;24864;49.940;19.770;2023-01-26T05:40:59;48.42;;;21.92;;
39128;SDS011;24864;49.940;19.770;2023-01-26T05:43:29;44.95;;;22.90;;
39128;SDS011;24864;49.940;19.770;2023-01-26T05:45:57;40.53;;;21.13;;
39128;SDS011;24864;49.940;19.770;2023-01-26T05:48:25;50.60;;;25.27;;
39128;SDS011;24864;49.940;19.770;2023-01-26T05:50:54;48.42;;;24.45;;
39128;SDS011;24864;49.940;19.770;2023-01-26T05:53:23;42.70;;;22.23;;
39128;SDS011;24864;49.940;19.770;2023-01-26T05:55:51;43.45;;;22.17;;
39128;SDS011;24864;49.940;19.770;2023-01-26T05:58:20;48.80;;;23.67;;
39128;SDS011;24864;49.940;19.770;2023-01-26T06:00:49;56.88;;;27.65;;
39128;SDS011;24864;49.940;19.770;2023-01-26T06:03:17;51.50;;;24.23;;
39128;SDS011;24864;49.940;19.770;2023-01-26T06:05:51;50.65;;;25.17;;
39128;SDS011;24864;49.940;19.770;2023-01-26T06:08:20;48.10;;;23.00;;
39128;SDS011;24864;49.940;19.770;2023-01-26T06:10:48;45.95;;;24.08;;
39128;SDS011;24864;49.940;19.770;2023-01-26T06:13:16;44.35;;;23.00;;
39128;SDS011;24864;49.940;19.770;2023-01-26T06:15:44;45.60;;;23.30;;
39128;SDS011;24864;49.940;19.770;2023-01-26T06:18:13;41.65;;;22.88;;
39128;SDS011;24864;49.940;19.770;2023-01-26T06:20:42;43.72;;;23.80;;
39128;SDS011;24864;49.940;19.770;2023-01-26T06:23:11;51.08;;;25.50;;
39128;SDS011;24864;49.940;19.770;2023-01-26T06:25:39;49.55;;;25.40;;
39128;SDS011;24864;49.940;19.770;2023-01-26T06:28:07;48.97;;;25.10;;
39128;SDS011;24864;49.940;19.770;2023-01-26T06:30:35;52.83;;;26.92;;
39128;SDS011;24864;49.940;19.770;2023-01-26T06:33:04;45.60;;;25.10;;
39128;SDS011;24864;49.940;19.770;2023-01-26T06:35:34;79.57;;;36.80;;
39128;SDS011;24864;49.940;19.770;2023-01-26T06:38:02;54.85;;;25.70;;
39128;SDS011;24864;49.940;19.770;2023-01-26T06:40:30;50.95;;;24.98;;
39128;SDS011;24864;49.940;19.770;2023-01-26T06:42:58;46.90;;;23.23;;
39128;SDS011;24864;49.940;19.770;2023-01-26T06:45:26;44.55;;;24.13;;
39128;SDS011;24864;49.940;19.770;2023-01-26T06:47:55;47.92;;;22.25;;
39128;SDS011;24864;49.940;19.770;2023-01-26T06:50:24;49.28;;;25.00;;
39128;SDS011;24864;49.940;19.770;2023-01-26T06:52:55;47.47;;;24.25;;
39128;SDS011;24864;49.940;19.770;2023-01-26T06:55:27;44.00;;;23.60;;
39128;SDS011;24864;49.940;19.770;2023-01-26T06:57:59;51.05;;;27.23;;
39128;SDS011;24864;49.940;19.770;2023-01-26T07:00:27;75.82;;;35.75;;
39128;SDS011;24864;49.940;19.770;2023-01-26T07:02:55;69.28;;;33.50;;
39128;SDS011;24864;49.940;19.770;2023-01-26T07:05:23;65.72;;;32.50;;
39128;SDS011;24864;49.940;19.770;2023-01-26T07:07:51;96.82;;;45.20;;
39128;SDS011;24864;49.940;19.770;2023-01-26T07:10:21;77.38;;;35.33;;
39128;SDS011;24864;49.940;19.770;2023-01-26T07:12:50;63.72;;;30.83;;
39128;SDS011;24864;49.940;19.770;2023-01-26T07:15:18;56.08;;;27.77;;
39128;SDS011;24864;49.940;19.770;2023-01-26T07:17:46;60.90;;;29.90;;
39128;SDS011;24864;49.940;19.770;2023-01-26T07:20:15;61.22;;;28.25;;
39128;SDS011;24864;49.940;19.770;2023-01-26T07:22:43;61.53;;;28.80;;
39128;SDS011;24864;49.940;19.770;2023-01-26T07:25:11;57.25;;;27.75;;
39128;SDS011;24864;49.940;19.770;2023-01-26T07:27:41;55.17;;;27.55;;
39128;SDS011;24864;49.940;19.770;2023-01-26T07:30:09;49.40;;;24.50;;
39128;SDS011;24864;49.940;19.770;2023-01-26T07:32:39;56.55;;;26.40;;
39128;SDS011;24864;49.940;19.770;2023-01-26T07:35:07;46.25;;;24.00;;
39128;SDS011;24864;49.940;19.770;2023-01-26T07:37:36;45.83;;;25.13;;
39128;SDS011;24864;49.940;19.770;2023-01-26T07:40:04;55.95;;;27.10;;
39128;SDS011;24864;49.940;19.770;2023-01-26T07:42:34;52.55;;;26.23;;
39128;SDS011;24864;49.940;19.770;2023-01-26T07:45:03;50.08;;;24.83;;
39128;SDS011;24864;49.940;19.770;2023-01-26T07:47:32;48.55;;;23.95;;
39128;SDS011;24864;49.940;19.770;2023-01-26T07:50:02;45.83;;;22.50;;
39128;SDS011;24864;49.940;19.770;2023-01-26T07:52:31;44.75;;;22.63;;
39128;SDS011;24864;49.940;19.770;2023-01-26T07:54:59;48.03;;;23.30;;
39128;SDS011;24864;49.940;19.770;2023-01-26T07:57:27;49.85;;;25.60;;
39128;SDS011;24864;49.940;19.770;2023-01-26T07:59:55;48.70;;;26.00;;
39128;SDS011;24864;49.940;19.770;2023-01-26T08:02:25;55.70;;;26.83;;
39128;SDS011;24864;49.940;19.770;2023-01-26T08:04:53;50.17;;;26.63;;
39128;SDS011;24864;49.940;19.770;2023-01-26T08:07:21;44.85;;;24.70;;
39128;SDS011;24864;49.940;19.770;2023-01-26T08:09:49;57.47;;;26.70;;
39128;SDS011;24864;49.940;19.770;2023-01-26T08:12:18;51.72;;;25.23;;
39128;SDS011;24864;49.940;19.770;2023-01-26T08:14:45;55.65;;;28.05;;
39128;SDS011;24864;49.940;19.770;2023-01-26T08:17:14;66.32;;;29.42;;
39128;SDS011;24864;49.940;19.770;2023-01-26T08:19:44;57.97;;;30.23;;
39128;SDS011;24864;49.940;19.770;2023-01-26T08:22:12;56.50;;;27.65;;
39128;SDS011;24864;49.940;19.770;2023-01-26T08:24:40;52.17;;;25.33;;
39128;SDS011;24864;49.940;19.770;2023-01-26T08:27:09;51.63;;;27.23;;
39128;SDS011;24864;49.940;19.770;2023-01-26T08:29:37;50.13;;;26.27;;
39128;SDS011;24864;49.940;19.770;2023-01-26T08:32:05;47.35;;;25.02;;
39128;SDS011;24864;49.940;19.770;2023-01-26T08:34:34;48.70;;;25.92;;
39128;SDS011;24864;49.940;19.770;2023-01-26T08:37:04;52.25;;;26.95;;
39128;SDS011;24864;49.940;19.770;2023-01-26T08:39:32;47.90;;;24.13;;
39128;SDS011;24864;49.940;19.770;2023-01-26T08:42:00;51.60;;;27.13;;
39128;SDS011;24864;49.940;19.770;2023-01-26T08:44:28;57.03;;;27.83;;
39128;SDS011;24864;49.940;19.770;2023-01-26T08:46:56;60.33;;;28.10;;
39128;SDS011;24864;49.940;19.770;2023-01-26T08:49:24;53.22;;;25.70;;
39128;SDS011;24864;49.940;19.770;2023-01-26T08:51:53;55.17;;;25.98;;
39128;SDS011;24864;49.940;19.770;2023-01-26T08:54:22;53.70;;;24.95;;
39128;SDS011;24864;49.940;19.770;2023-01-26T08:56:50;52.95;;;25.75;;
39128;SDS011;24864;49.940;19.770;2023-01-26T08:59:20;55.97;;;26.05;;
39128;SDS011;24864;49.940;19.770;2023-01-26T09:01:49;50.83;;;25.02;;
39128;SDS011;24864;49.940;19.770;2023-01-26T09:04:17;56.47;;;26.20;;
39128;SDS011;24864;49.940;19.770;2023-01-26T09:06:46;51.22;;;25.83;;
39128;SDS011;24864;49.940;19.770;2023-01-26T09:09:14;52.78;;;25.33;;
39128;SDS011;24864;49.940;19.770;2023-01-26T09:11:44;52.47;;;26.40;;
39128;SDS011;24864;49.940;19.770;2023-01-26T09:14:12;49.22;;;25.80;;
39128;SDS011;24864;49.940;19.770;2023-01-26T09:16:40;47.85;;;24.75;;
39128;SDS011;24864;49.940;19.770;2023-01-26T09:19:08;49.58;;;24.90;;
39128;SDS011;24864;49.940;19.770;2023-01-26T09:21:36;53.13;;;25.33;;
39128;SDS011;24864;49.940;19.770;2023-01-26T09:24:04;55.50;;;24.00;;
39128;SDS011;24864;49.940;19.770;2023-01-26T09:26:33;51.95;;;24.35;;
39128;SDS011;24864;49.940;19.770;2023-01-26T09:29:02;48.95;;;24.10;;
39128;SDS011;24864;49.940;19.770;2023-01-26T09:31:31;44.25;;;23.42;;
39128;SDS011;24864;49.940;19.770;2023-01-26T09:33:59;53.38;;;26.48;;
39128;SDS011;24864;49.940;19.770;2023-01-26T09:36:27;49.80;;;24.73;;
39128;SDS011;24864;49.940;19.770;2023-01-26T09:38:55;50.60;;;25.45;;
39128;SDS011;24864;49.940;19.770;2023-01-26T09:41:32;53.85;;;25.05;;
39128;SDS011;24864;49.940;19.770;2023-01-26T09:44:15;52.63;;;24.48;;
39128;SDS011;24864;49.940;19.770;2023-01-26T09:46:50;50.38;;;23.98;;
39128;SDS011;24864;49.940;19.770;2023-01-26T09:49:23;51.75;;;24.45;;
39128;SDS011;24864;49.940;19.770;2023-01-26T09:51:57;48.75;;;24.85;;
39128;SDS011;24864;49.940;19.770;2023-01-26T09:54:30;48.95;;;24.88;;
39128;SDS011;24864;49.940;19.770;2023-01-26T09:57:01;49.75;;;24.73;;
39128;SDS011;24864;49.940;19.770;2023-01-26T09:59:38;49.28;;;24.48;;
39128;SDS011;24864;49.940;19.770;2023-01-26T10:02:16;54.53;;;24.85;;
39128;SDS011;24864;49.940;19.770;2023-01-26T10:04:54;49.42;;;24.13;;
39128;SDS011;24864;49.940;19.770;2023-01-26T10:09:53;54.90;;;24.48;;
39128;SDS011;24864;49.940;19.770;2023-01-26T10:12:23;53.92;;;25.08;;
39128;SDS011;24864;49.940;19.770;2023-01-26T10:14:57;54.00;;;24.70;;
39128;SDS011;24864;49.940;19.770;2023-01-26T10:17:28;50.20;;;23.00;;
39128;SDS011;24864;49.940;19.770;2023-01-26T10:19:59;52.03;;;24.48;;
39128;SDS011;24864;49.940;19.770;2023-01-26T10:22:35;50.33;;;23.67;;
39128;SDS011;24864;49.940;19.770;2023-01-26T10:25:11;57.83;;;26.10;;
39128;SDS011;24864;49.940;19.770;2023-01-26T10:27:41;54.63;;;25.65;;
39128;SDS011;24864;49.940;19.770;2023-01-26T10:30:13;55.72;;;26.33;;
39128;SDS011;24864;49.940;19.770;2023-01-26T10:32:42;54.38;;;24.27;;
39128;SDS011;24864;49.940;19.770;2023-01-26T10:35:14;54.13;;;25.23;;
39128;SDS011;24864;49.940;19.770;2023-01-26T10:37:44;40.00;;;19.90;;
39128;SDS011;24864;49.940;19.770;2023-01-26T10:40:12;46.80;;;23.60;;
39128;SDS011;24864;49.940;19.770;2023-01-26T10:42:41;51.70;;;25.90;;
39128;SDS011;24864;49.940;19.770;2023-01-26T10:45:27;54.88;;;25.83;;
39128;SDS011;24864;49.940;19.770;2023-01-26T10:48:03;56.75;;;26.10;;
39128;SDS011;24864;49.940;19.770;2023-01-26T10:50:41;52.05;;;25.67;;
39128;SDS011;24864;49.940;19.770;2023-01-26T10:53:13;53.75;;;26.05;;
39128;SDS011;24864;49.940;19.770;2023-01-26T10:55:42;57.63;;;26.45;;
39128;SDS011;24864;49.940;19.770;2023-01-26T11:01:12;57.58;;;28.17;;
39128;SDS011;24864;49.940;19.770;2023-01-26T11:03:41;56.53;;;26.08;;
39128;SDS011;24864;49.940;19.770;2023-01-26T11:06:12;52.45;;;26.42;;
39128;SDS011;24864;49.940;19.770;2023-01-26T11:08:42;50.33;;;25.52;;
39128;SDS011;24864;49.940;19.770;2023-01-26T11:11:21;60.50;;;28.08;;
39128;SDS011;24864;49.940;19.770;2023-01-26T11:13:59;54.63;;;26.10;;
39128;SDS011;24864;49.940;19.770;2023-01-26T11:16:38;59.65;;;26.05;;
39128;SDS011;24864;49.940;19.770;2023-01-26T11:19:09;50.15;;;24.77;;
39128;SDS011;24864;49.940;19.770;2023-01-26T11:21:40;55.38;;;28.25;;
39128;SDS011;24864;49.940;19.770;2023-01-26T11:24:13;58.28;;;27.48;;
39128;SDS011;24864;49.940;19.770;2023-01-26T11:26:50;51.38;;;24.98;;
39128;SDS011;24864;49.940;19.770;2023-01-26T11:29:45;56.65;;;25.65;;
39128;SDS011;24864;49.940;19.770;2023-01-26T11:32:25;55.60;;;28.85;;
39128;SDS011;24864;49.940;19.770;2023-01-26T11:35:02;54.38;;;26.52;;
39128;SDS011;24864;49.940;19.770;2023-01-26T11:37:41;58.17;;;28.65;;
39128;SDS011;24864;49.940;19.770;2023-01-26T11:40:21;57.63;;;28.00;;
39128;SDS011;24864;49.940;19.770;2023-01-26T11:42:57;54.17;;;27.45;;
39128;SDS011;24864;49.940;19.770;2023-01-26T11:45:49;51.08;;;25.77;;
39128;SDS011;24864;49.940;19.770;2023-01-26T11:48:30;57.60;;;26.95;;
39128;SDS011;24864;49.940;19.770;2023-01-26T11:51:05;53.50;;;28.15;;
39128;SDS011;24864;49.940;19.770;2023-01-26T11:54:02;55.25;;;27.67;;
39128;SDS011;24864;49.940;19.770;2023-01-26T11:56:39;50.92;;;27.50;;
39128;SDS011;24864;49.940;19.770;2023-01-26T11:59:13;62.42;;;29.13;;
39128;SDS011;24864;49.940;19.770;2023-01-26T12:01:45;60.55;;;28.73;;
39128;SDS011;24864;49.940;19.770;2023-01-26T12:04:18;57.03;;;27.95;;
39128;SDS011;24864;49.940;19.770;2023-01-26T12:06:49;51.05;;;27.98;;
39128;SDS011;24864;49.940;19.770;2023-01-26T12:09:21;51.90;;;26.10;;
39128;SDS011;24864;49.940;19.770;2023-01-26T12:11:59;55.83;;;27.33;;
39128;SDS011;24864;49.940;19.770;2023-01-26T12:14:31;60.58;;;28.20;;
39128;SDS011;24864;49.940;19.770;2023-01-26T12:17:15;56.90;;;27.42;;
39128;SDS011;24864;49.940;19.770;2023-01-26T12:19:53;58.25;;;27.20;;
39128;SDS011;24864;49.940;19.770;2023-01-26T12:22:31;61.05;;;28.75;;
39128;SDS011;24864;49.940;19.770;2023-01-26T12:25:01;58.03;;;26.95;;
39128;SDS011;24864;49.940;19.770;2023-01-26T12:27:46;60.65;;;29.83;;
39128;SDS011;24864;49.940;19.770;2023-01-26T12:30:21;61.05;;;28.27;;
39128;SDS011;24864;49.940;19.770;2023-01-26T12:32:53;62.95;;;30.23;;
39128;SDS011;24864;49.940;19.770;2023-01-26T12:35:26;68.82;;;32.47;;
39128;SDS011;24864;49.940;19.770;2023-01-26T12:38:04;60.40;;;29.50;;
39128;SDS011;24864;49.940;19.770;2023-01-26T12:40:47;61.88;;;28.30;;
39128;SDS011;24864;49.940;19.770;2023-01-26T12:43:25;52.25;;;27.23;;
39128;SDS011;24864;49.940;19.770;2023-01-26T12:46:06;64.88;;;28.90;;
39128;SDS011;24864;49.940;19.770;2023-01-26T12:48:37;55.22;;;28.27;;
39128;SDS011;24864;49.940;19.770;2023-01-26T12:51:10;60.28;;;28.55;;
39128;SDS011;24864;49.940;19.770;2023-01-26T12:53:45;61.22;;;29.17;;
39128;SDS011;24864;49.940;19.770;2023-01-26T12:56:19;63.60;;;28.98;;
39128;SDS011;24864;49.940;19.770;2023-01-26T12:58:50;66.32;;;29.48;;
39128;SDS011;24864;49.940;19.770;2023-01-26T13:01:20;61.53;;;31.55;;
39128;SDS011;24864;49.940;19.770;2023-01-26T13:03:50;63.70;;;31.25;;
39128;SDS011;24864;49.940;19.770;2023-01-26T13:06:22;66.78;;;32.15;;
39128;SDS011;24864;49.940;19.770;2023-01-26T13:08:58;64.15;;;30.20;;
39128;SDS011;24864;49.940;19.770;2023-01-26T13:11:39;63.67;;;29.65;;
39128;SDS011;24864;49.940;19.770;2023-01-26T13:14:31;67.20;;;29.77;;
39128;SDS011;24864;49.940;19.770;2023-01-26T13:20:25;62.05;;;29.55;;
39128;SDS011;24864;49.940;19.770;2023-01-26T13:22:56;59.25;;;29.13;;
39128;SDS011;24864;49.940;19.770;2023-01-26T13:25:27;64.63;;;29.85;;
39128;SDS011;24864;49.940;19.770;2023-01-26T13:27:58;66.80;;;30.27;;
39128;SDS011;24864;49.940;19.770;2023-01-26T13:30:37;56.25;;;29.45;;
39128;SDS011;24864;49.940;19.770;2023-01-26T13:33:15;64.55;;;31.35;;
39128;SDS011;24864;49.940;19.770;2023-01-26T13:35:48;53.63;;;27.60;;
39128;SDS011;24864;49.940;19.770;2023-01-26T13:38:21;51.85;;;26.63;;
39128;SDS011;24864;49.940;19.770;2023-01-26T13:40:54;61.20;;;28.63;;
39128;SDS011;24864;49.940;19.770;2023-01-26T13:43:27;59.92;;;29.05;;
39128;SDS011;24864;49.940;19.770;2023-01-26T13:46:01;57.40;;;26.13;;
39128;SDS011;24864;49.940;19.770;2023-01-26T13:48:35;56.45;;;27.75;;
39128;SDS011;24864;49.940;19.770;2023-01-26T13:51:11;54.97;;;27.48;;
39128;SDS011;24864;49.940;19.770;2023-01-26T13:53:43;47.58;;;24.67;;
39128;SDS011;24864;49.940;19.770;2023-01-26T13:56:19;56.72;;;25.27;;
39128;SDS011;24864;49.940;19.770;2023-01-26T13:58:49;54.28;;;26.42;;
39128;SDS011;24864;49.940;19.770;2023-01-26T14:01:18;55.00;;;25.88;;
39128;SDS011;24864;49.940;19.770;2023-01-26T14:03:47;54.28;;;26.67;;
39128;SDS011;24864;49.940;19.770;2023-01-26T14:06:16;59.53;;;26.75;;
39128;SDS011;24864;49.940;19.770;2023-01-26T14:08:48;54.08;;;26.83;;
39128;SDS011;24864;49.940;19.770;2023-01-26T14:11:21;50.63;;;25.15;;
39128;SDS011;24864;49.940;19.770;2023-01-26T14:13:51;52.20;;;26.08;;
39128;SDS011;24864;49.940;19.770;2023-01-26T14:16:23;57.55;;;25.50;;
39128;SDS011;24864;49.940;19.770;2023-01-26T14:19:01;52.42;;;24.90;;
39128;SDS011;24864;49.940;19.770;2023-01-26T14:21:31;47.25;;;23.50;;
39128;SDS011;24864;49.940;19.770;2023-01-26T14:24:00;51.55;;;22.63;;
39128;SDS011;24864;49.940;19.770;2023-01-26T14:26:30;42.58;;;22.48;;
39128;SDS011;24864;49.940;19.770;2023-01-26T14:28:58;49.70;;;26.00;;
39128;SDS011;24864;49.940;19.770;2023-01-26T14:31:28;51.25;;;25.60;;
39128;SDS011;24864;49.940;19.770;2023-01-26T14:33:57;53.60;;;26.30;;
39128;SDS011;24864;49.940;19.770;2023-01-26T14:36:27;59.33;;;26.20;;
39128;SDS011;24864;49.940;19.770;2023-01-26T14:38:58;55.05;;;27.67;;
39128;SDS011;24864;49.940;19.770;2023-01-26T14:41:28;54.25;;;27.63;;
39128;SDS011;24864;49.940;19.770;2023-01-26T14:43:59;58.80;;;28.10;;